Time;durP1;ratioP1;P1;durP2;ratioP2;P2;SDS_P1;SDS_P2;PMS_P1;PMS_P2;Temp;Humidity;BMP_temperature;BMP_pressure;BME280_temperature;BME280_humidity;BME280_pressure;Samples;Min_cycle;Max_cycle;Signal;HPM_P1;HPM_P2
2023/03/09 00:02:00;;;;;;;12.40;6.80;;;;;;;12.54;43.20;99528.22;107261;1289;1002485;-65
2023/03/09 00:04:26;;;;;;;11.50;6.90;;;;;;;12.52;43.05;99529.70;108000;1289;22018;-65
2023/03/09 00:06:51;;;;;;;11.40;6.60;;;;;;;12.50;43.06;99528.67;108011;1288;22250;-67
2023/03/09 00:09:17;;;;;;;11.80;7.20;;;;;;;12.50;43.02;99533.08;108050;1289;22028;-64
2023/03/09 06:54:44;;;;;;;9.50;6.50;;;;;;;13.63;62.46;99390.42;107334;1289;548521;-61
2023/03/09 06:57:13;;;;;;;10.20;5.40;;;;;;;16.60;48.03;99369.11;107775;1291;21978;-61
2023/03/09 06:59:39;;;;;;;10.50;5.70;;;;;;;17.09;46.11;99369.22;107721;1293;21997;-61
2023/03/09 07:02:05;;;;;;;8.70;4.90;;;;;;;17.27;44.48;99364.84;107720;1294;21998;-61
2023/03/09 07:04:31;;;;;;;12.10;5.90;;;;;;;17.40;44.14;99361.45;107803;1289;23711;-62
2023/03/09 07:07:02;;;;;;;9.00;5.60;;;;;;;17.49;43.97;99359.35;107604;1289;337240;-61
2023/03/09 07:09:27;;;;;;;10.20;4.90;;;;;;;17.62;43.77;99356.10;107855;1290;21990;-61
2023/03/09 07:11:54;;;;;;;15.90;7.00;;;;;;;17.71;43.01;99356.31;107805;1286;21999;-62
2023/03/09 07:14:21;;;;;;;13.50;5.80;;;;;;;17.83;42.87;99354.91;107732;1290;22004;-63
2023/03/09 07:16:54;;;;;;;12.30;5.50;;;;;;;17.99;42.84;99348.84;107761;1286;21995;-62
2023/03/09 07:19:20;;;;;;;7.50;4.80;;;;;;;18.14;42.58;99349.20;107792;1286;21991;-62
2023/03/09 07:21:46;;;;;;;9.70;5.00;;;;;;;18.28;41.91;99349.11;107699;1289;21990;-62
2023/03/09 07:24:12;;;;;;;9.50;4.90;;;;;;;18.33;41.46;99344.34;107802;1290;21988;-62
2023/03/09 07:26:38;;;;;;;9.10;5.50;;;;;;;18.35;40.59;99342.79;107716;1290;21992;-63
2023/03/09 07:29:04;;;;;;;11.30;5.00;;;;;;;18.39;40.84;99341.30;107810;1290;21990;-62
2023/03/09 07:31:30;;;;;;;6.80;4.40;;;;;;;18.46;40.15;99338.42;107769;1290;21986;-62
2023/03/09 07:33:58;;;;;;;8.60;4.90;;;;;;;18.55;39.72;99330.73;107746;1290;21995;-61
2023/03/09 07:36:24;;;;;;;7.00;4.90;;;;;;;18.60;39.63;99328.67;107925;1289;23608;-62
2023/03/09 07:38:51;;;;;;;8.60;4.90;;;;;;;18.68;39.94;99330.09;107925;1290;21993;-62
2023/03/09 07:41:18;;;;;;;12.70;5.00;;;;;;;18.74;39.90;99327.96;107779;1290;21992;-63
2023/03/09 07:43:44;;;;;;;7.90;5.00;;;;;;;18.75;39.28;99327.21;107740;1290;21997;-63
2023/03/09 07:46:12;;;;;;;7.30;4.30;;;;;;;18.80;39.83;99326.52;107845;1289;21987;-63
2023/03/09 07:48:38;;;;;;;9.00;4.90;;;;;;;18.79;39.44;99323.58;107792;1290;21991;-62
2023/03/09 07:51:05;;;;;;;9.10;4.80;;;;;;;18.83;39.40;99327.79;107723;1289;22004;-62
2023/03/09 07:53:33;;;;;;;8.70;4.60;;;;;;;18.84;39.11;99325.77;107803;1290;22003;-63
2023/03/09 07:56:03;;;;;;;8.50;4.70;;;;;;;18.95;39.67;99315.98;107856;1286;21991;-64
2023/03/09 07:58:38;;;;;;;5.80;3.90;;;;;;;19.07;39.62;99313.10;107775;1290;23768;-62
2023/03/09 08:01:06;;;;;;;8.10;3.90;;;;;;;19.19;39.31;99306.30;107912;1289;22024;-62
2023/03/09 08:03:35;;;;;;;6.50;3.50;;;;;;;19.21;38.42;99308.69;107093;1290;1002328;-63
2023/03/09 08:06:01;;;;;;;6.80;4.30;;;;;;;19.36;38.65;99304.70;107769;1290;21998;-63
2023/03/09 08:08:31;;;;;;;6.60;3.40;;;;;;;19.45;37.88;99305.54;107763;1289;21986;-63
2023/03/09 08:10:57;;;;;;;7.70;3.50;;;;;;;19.57;38.03;99310.24;107947;1290;22022;-62
2023/03/09 08:13:25;;;;;;;7.20;3.60;;;;;;;19.64;37.53;99300.34;107877;1290;21982;-62
2023/03/09 08:15:52;;;;;;;7.50;3.70;;;;;;;19.70;37.31;99296.73;107787;1290;22001;-63
2023/03/09 08:18:19;;;;;;;9.00;4.00;;;;;;;19.74;37.10;99291.34;107842;1290;21996;-62
2023/03/09 08:20:46;;;;;;;8.50;4.20;;;;;;;19.78;36.91;99295.13;107722;1283;21987;-62
2023/03/09 08:23:12;;;;;;;9.40;3.90;;;;;;;19.82;36.41;99299.71;107784;1290;24366;-62
2023/03/09 08:25:39;;;;;;;6.20;3.50;;;;;;;19.91;37.00;99299.10;107739;1290;21995;-61
2023/03/09 08:28:05;;;;;;;7.90;3.80;;;;;;;20.00;36.71;99290.44;107736;1288;22193;-62
2023/03/09 08:30:34;;;;;;;5.70;3.40;;;;;;;20.18;36.30;99292.44;107766;1286;22005;-62
2023/03/09 08:32:59;;;;;;;6.30;3.70;;;;;;;20.34;36.09;99292.90;107865;1290;21990;-62
2023/03/09 08:35:28;;;;;;;6.90;3.50;;;;;;;20.53;35.89;99300.00;107873;1290;21990;-63
2023/03/09 08:37:59;;;;;;;8.30;3.20;;;;;;;20.58;35.25;99300.00;107889;1288;22002;-60
2023/03/09 08:40:26;;;;;;;6.10;3.30;;;;;;;20.78;35.51;99298.95;108029;1277;23059;-61
2023/03/09 08:42:51;;;;;;;7.80;3.40;;;;;;;20.94;35.18;99293.55;107824;1290;21990;-62
2023/03/09 08:45:18;;;;;;;7.70;3.90;;;;;;;21.06;35.39;99291.02;107802;1290;22000;-62
2023/03/09 08:47:44;;;;;;;6.10;3.40;;;;;;;21.13;35.19;99291.80;107885;1290;21992;-62
2023/03/09 08:50:12;;;;;;;5.50;3.10;;;;;;;21.18;34.97;99292.46;107740;1290;21984;-62
2023/03/09 08:52:40;;;;;;;6.00;3.40;;;;;;;21.23;35.14;99295.70;107776;1290;21991;-61
2023/03/09 08:55:11;;;;;;;6.90;3.20;;;;;;;21.26;35.18;99288.89;107686;1290;22026;-60
2023/03/09 08:57:37;;;;;;;6.10;2.90;;;;;;;21.27;34.73;99288.97;107830;1290;21986;-61
2023/03/09 09:00:11;;;;;;;6.00;2.60;;;;;;;21.48;35.27;99289.94;107784;1288;21993;-60
2023/03/09 09:02:38;;;;;;;6.20;2.50;;;;;;;21.53;33.95;99286.48;107972;1286;22159;-63
2023/03/09 09:05:05;;;;;;;6.90;2.70;;;;;;;21.67;34.11;99282.98;107781;1288;21987;-63
2023/03/09 09:07:30;;;;;;;5.40;2.20;;;;;;;21.88;34.29;99278.36;107839;1290;23129;-64
2023/03/09 09:09:58;;;;;;;4.20;2.10;;;;;;;22.12;33.55;99272.60;107855;1282;21992;-66
2023/03/09 09:12:25;;;;;;;4.30;2.30;;;;;;;22.53;33.23;99263.66;108017;1290;21992;-64
2023/03/09 09:14:53;;;;;;;4.30;2.10;;;;;;;22.84;31.90;99259.92;107911;1290;21990;-65
2023/03/09 09:17:19;;;;;;;4.80;1.60;;;;;;;23.06;31.67;99257.05;107862;1290;21992;-65
2023/03/09 09:19:44;;;;;;;3.00;1.80;;;;;;;23.15;30.91;99255.50;107729;1290;21960;-65
2023/03/09 09:22:11;;;;;;;4.40;2.20;;;;;;;23.29;31.34;99255.05;107735;1290;21994;-65
2023/03/09 09:24:37;;;;;;;3.70;2.20;;;;;;;23.36;31.71;99252.65;107763;1290;22011;-64
2023/03/09 09:27:06;;;;;;;4.90;2.20;;;;;;;23.40;31.27;99251.60;107793;1290;21992;-61
2023/03/09 09:29:33;;;;;;;4.70;2.00;;;;;;;23.56;30.69;99245.80;107899;1278;22125;-62
2023/03/09 09:32:00;;;;;;;8.70;2.50;;;;;;;23.79;31.04;99238.31;107739;1290;21992;-61
2023/03/09 09:34:31;;;;;;;8.30;2.50;;;;;;;23.88;30.29;99239.17;107779;1290;21990;-62
2023/03/09 09:36:56;;;;;;;6.00;1.70;;;;;;;24.07;29.62;99230.04;107789;1290;22455;-62
2023/03/09 09:39:25;;;;;;;5.50;1.80;;;;;;;24.30;29.71;99227.73;107803;1290;21995;-62
2023/03/09 09:41:55;;;;;;;3.30;1.80;;;;;;;24.56;29.88;99218.36;107798;1290;21988;-63
2023/03/09 09:44:33;;;;;;;5.80;2.10;;;;;;;24.77;29.23;99209.97;107929;1290;21990;-62
2023/03/09 09:47:01;;;;;;;3.90;2.10;;;;;;;24.98;29.00;99208.05;107834;1290;21990;-64
2023/03/09 09:49:28;;;;;;;5.10;1.60;;;;;;;25.13;28.45;99205.12;107979;1290;21991;-63
2023/03/09 09:52:11;;;;;;;6.80;2.30;;;;;;;25.32;28.39;99193.98;107168;1290;1002361;-63
2023/03/09 09:54:43;;;;;;;3.20;1.80;;;;;;;25.48;28.16;99195.05;107825;1290;21990;-62
2023/03/09 09:57:23;;;;;;;5.10;1.80;;;;;;;25.65;27.99;99191.88;107873;1290;22023;-63
2023/03/09 10:00:24;;;;;;;3.00;1.40;;;;;;;25.61;27.31;99193.33;107913;1290;21990;-64
2023/03/09 10:02:57;;;;;;;4.10;1.70;;;;;;;25.79;27.97;99184.96;107795;1290;21999;-64
2023/03/09 10:05:25;;;;;;;6.40;2.20;;;;;;;25.82;26.59;99189.58;107892;1290;21989;-62
2023/03/09 10:07:51;;;;;;;5.00;2.30;;;;;;;25.86;26.59;99176.98;107858;1290;22004;-64
2023/03/09 10:10:20;;;;;;;5.40;2.20;;;;;;;26.00;26.91;99172.55;107802;1291;22005;-63
2023/03/09 10:12:46;;;;;;;4.30;1.90;;;;;;;25.93;26.00;99171.68;108012;1289;22008;-63
2023/03/09 10:15:25;;;;;;;4.70;1.80;;;;;;;26.01;25.97;99170.38;107906;1287;22083;-65
2023/03/09 10:18:28;;;;;;;4.60;1.70;;;;;;;26.13;26.58;99171.70;107971;1288;21992;-63
2023/03/09 10:20:55;;;;;;;4.10;1.80;;;;;;;26.18;26.09;99165.83;107653;1289;21990;-65
2023/03/09 10:23:24;;;;;;;5.90;1.90;;;;;;;26.27;25.92;99160.45;108065;1288;21990;-62
2023/03/09 10:25:52;;;;;;;4.00;1.50;;;;;;;26.41;25.78;99152.63;108158;1288;24461;-63
2023/03/09 10:28:19;;;;;;;5.50;1.90;;;;;;;26.52;25.90;99148.29;108146;1288;21998;-66
2023/03/09 10:30:56;;;;;;;4.20;1.60;;;;;;;26.54;25.54;99150.99;108041;1288;21993;-62
2023/03/09 10:33:26;;;;;;;3.90;1.60;;;;;;;26.57;25.30;99139.77;108036;1288;22029;-67
2023/03/09 10:36:11;;;;;;;3.50;1.80;;;;;;;26.52;25.05;99141.87;108054;1288;22200;-65
2023/03/09 10:38:38;;;;;;;5.90;1.90;;;;;;;26.52;25.16;99135.17;108008;1288;21999;-61
2023/03/09 10:41:13;;;;;;;5.40;1.60;;;;;;;26.63;25.18;99134.27;107996;1288;21997;-62
2023/03/09 10:43:41;;;;;;;2.30;1.50;;;;;;;26.74;24.82;99130.56;108059;1288;21992;-67
2023/03/09 10:46:16;;;;;;;3.60;1.90;;;;;;;26.69;24.68;99125.63;107996;1288;22937;-61
2023/03/09 10:48:43;;;;;;;4.80;1.80;;;;;;;26.70;24.56;99122.46;108093;1287;22027;-66
2023/03/09 10:51:43;;;;;;;4.30;1.70;;;;;;;26.81;24.87;99118.34;107998;1288;21988;-66
2023/03/09 10:54:33;;;;;;;5.60;1.50;;;;;;;26.97;24.44;99118.39;108057;1287;21987;-66
2023/03/09 10:56:59;;;;;;;4.20;1.50;;;;;;;26.91;23.64;99122.38;107981;1288;21990;-66
2023/03/09 10:59:26;;;;;;;6.30;1.40;;;;;;;26.89;24.11;99113.91;108001;1288;21989;-61
2023/03/09 11:01:56;;;;;;;5.60;1.40;;;;;;;26.81;24.12;99111.67;108082;1288;23888;-66
2023/03/09 11:04:22;;;;;;;3.60;1.60;;;;;;;26.79;24.03;99103.58;108023;1288;21987;-66
2023/03/09 11:07:01;;;;;;;5.00;1.60;;;;;;;26.76;24.04;99096.88;107976;1283;21998;-66
2023/03/09 11:09:41;;;;;;;3.90;1.70;;;;;;;26.82;24.29;99082.23;108016;1288;22032;-61
2023/03/09 11:12:33;;;;;;;5.00;1.60;;;;;;;26.88;23.98;99086.01;107984;1288;21987;-61
2023/03/09 11:15:01;;;;;;;5.00;1.80;;;;;;;26.85;23.90;99080.71;108032;1288;22448;-66
2023/03/09 11:17:30;;;;;;;3.30;1.80;;;;;;;26.76;23.83;99079.01;108012;1288;21993;-65
2023/03/09 11:20:11;;;;;;;3.10;1.30;;;;;;;26.74;23.74;99079.58;107981;1288;22012;-67
2023/03/09 11:22:41;;;;;;;4.30;1.60;;;;;;;26.81;23.85;99077.52;108006;1288;21992;-68
2023/03/09 11:25:13;;;;;;;4.30;1.40;;;;;;;26.94;24.09;99065.34;108094;1288;23757;-68
2023/03/09 11:27:39;;;;;;;3.80;1.30;;;;;;;26.94;23.26;99065.92;107996;1288;21992;-69
2023/03/09 11:30:16;;;;;;;3.10;1.50;;;;;;;27.01;23.64;99053.92;107844;1288;21999;-61
2023/03/09 11:32:43;;;;;;;3.70;1.20;;;;;;;27.14;23.86;99049.89;107936;1288;22203;-61
2023/03/09 11:35:12;;;;;;;2.90;1.20;;;;;;;27.13;23.40;99054.24;107863;1288;21987;-69
2023/03/09 11:37:53;;;;;;;1.80;1.00;;;;;;;27.13;22.90;99049.27;108035;1288;22761;-69
2023/03/09 11:40:20;;;;;;;3.70;1.40;;;;;;;27.06;22.56;99042.17;107989;1288;22000;-70
2023/03/09 11:42:53;;;;;;;2.60;1.10;;;;;;;27.03;22.50;99040.54;107998;1282;21998;-62
2023/03/09 11:45:29;;;;;;;3.10;1.20;;;;;;;27.17;22.78;99038.17;108061;1288;22035;-63
2023/03/09 11:47:58;;;;;;;4.20;1.30;;;;;;;27.20;22.63;99043.67;107988;1288;23933;-64
2023/03/09 11:50:58;;;;;;;4.70;1.60;;;;;;;27.08;22.07;99045.46;107203;1286;1003065;-65
2023/03/09 11:53:35;;;;;;;4.20;1.30;;;;;;;27.27;22.41;99032.89;107966;1288;21991;-63
2023/03/09 11:56:13;;;;;;;;;;;;;;;27.38;22.25;99034.11;108048;1288;22453;-63
2023/03/09 11:58:40;;;;;;;4.70;1.20;;;;;;;27.36;22.20;99032.27;108008;1286;22248;-65
2023/03/09 12:01:21;;;;;;;2.90;1.30;;;;;;;27.25;22.31;99028.92;107918;1288;21985;-65
2023/03/09 12:03:54;;;;;;;2.70;1.50;;;;;;;27.27;22.81;99019.36;108063;1288;22452;-63
2023/03/09 12:06:46;;;;;;;4.10;1.50;;;;;;;27.33;22.49;99021.08;108054;1288;21991;-65
2023/03/09 12:09:23;;;;;;;5.70;1.50;;;;;;;27.28;22.00;99022.73;107974;1288;21997;-63
2023/03/09 12:11:52;;;;;;;3.40;1.30;;;;;;;27.32;22.56;99011.28;108040;1287;21998;-65
2023/03/09 12:14:29;;;;;;;4.10;1.30;;;;;;;27.30;22.24;99003.36;107891;1288;22738;-62
2023/03/09 12:16:58;;;;;;;5.90;1.70;;;;;;;27.31;22.00;99004.55;108030;1281;21996;-61
2023/03/09 12:19:27;;;;;;;3.20;1.50;;;;;;;27.23;21.81;99002.32;108012;1288;23456;-66
2023/03/09 12:22:03;;;;;;;2.30;1.20;;;;;;;27.19;21.77;98995.71;107980;1288;21990;-67
2023/03/09 12:24:39;;;;;;;4.50;1.40;;;;;;;27.19;21.91;98999.12;108083;1288;23660;-61
2023/03/09 12:27:12;;;;;;;6.40;1.40;;;;;;;27.18;21.76;98995.84;108087;1288;23047;-68
2023/03/09 12:29:47;;;;;;;3.70;1.40;;;;;;;27.07;21.66;98998.41;108101;1288;21989;-59
2023/03/09 12:32:25;;;;;;;4.00;1.50;;;;;;;27.19;22.30;98995.88;108011;1288;22099;-64
2023/03/09 12:34:53;;;;;;;4.20;1.50;;;;;;;27.22;22.31;98996.48;108125;1288;22001;-61
2023/03/09 12:37:28;;;;;;;5.30;1.50;;;;;;;27.15;21.99;98989.61;108146;1288;21992;-61
2023/03/09 12:40:24;;;;;;;4.30;1.50;;;;;;;27.13;22.01;98994.67;108112;1288;22050;-61
2023/03/09 12:42:56;;;;;;;4.30;1.60;;;;;;;27.03;21.96;98994.23;108007;1288;21990;-61
2023/03/09 12:45:31;;;;;;;9.50;2.00;;;;;;;26.86;21.84;98994.36;108161;1288;21976;-63
2023/03/09 12:47:59;;;;;;;10.30;2.40;;;;;;;26.79;22.03;98985.75;107987;1288;21992;-61
2023/03/09 12:50:54;;;;;;;17.10;2.10;;;;;;;26.91;22.29;98984.77;108143;1288;21990;-61
2023/03/09 12:53:21;;;;;;;9.30;1.60;;;;;;;27.01;21.87;98983.38;108074;1288;22002;-61
2023/03/09 12:55:56;;;;;;;3.50;1.10;;;;;;;27.08;21.63;98988.54;107314;1288;1002325;-62
2023/03/09 12:58:21;;;;;;;11.00;1.80;;;;;;;27.14;21.71;98985.22;108140;1288;22003;-64
2023/03/09 13:00:56;;;;;;;2.50;1.10;;;;;;;27.11;21.06;98986.26;108101;1287;21982;-64
2023/03/09 13:03:24;;;;;;;2.20;1.20;;;;;;;26.97;20.99;98988.81;108094;1288;23455;-64
2023/03/09 13:05:51;;;;;;;3.30;1.30;;;;;;;27.03;21.53;98989.59;108075;1288;22027;-65
2023/03/09 13:08:23;;;;;;;6.20;1.90;;;;;;;27.04;21.84;98984.36;108126;1288;21987;-63
2023/03/09 13:10:49;;;;;;;2.90;1.10;;;;;;;27.03;21.72;98977.70;107955;1288;22027;-63
2023/03/09 13:13:37;;;;;;;6.70;1.60;;;;;;;27.01;21.35;98981.16;107746;1288;21991;-65
2023/03/09 13:16:30;;;;;;;3.50;1.40;;;;;;;26.94;21.42;98979.90;108125;1287;22031;-63
2023/03/09 13:19:15;;;;;;;3.40;1.20;;;;;;;26.87;21.60;98985.53;108110;1288;22012;-65
2023/03/09 13:21:48;;;;;;;4.00;1.30;;;;;;;26.77;21.76;98981.80;108105;1288;21991;-65
2023/03/09 13:24:17;;;;;;;3.80;1.80;;;;;;;26.73;21.78;98978.20;108030;1288;21994;-63
2023/03/09 13:26:44;;;;;;;3.80;1.40;;;;;;;26.57;21.78;98979.45;108115;1288;22027;-64
2023/03/09 13:29:10;;;;;;;4.80;1.20;;;;;;;26.48;21.65;98981.06;108074;1288;22918;-63
2023/03/09 13:31:36;;;;;;;2.30;1.20;;;;;;;26.42;21.59;98985.88;108066;1288;21999;-64
2023/03/09 13:34:02;;;;;;;3.10;1.20;;;;;;;26.37;21.55;98979.18;108027;1288;21996;-63
2023/03/09 13:36:35;;;;;;;1.80;1.00;;;;;;;26.26;21.66;98974.36;108004;1288;23632;-63
2023/03/09 13:39:05;;;;;;;5.50;1.30;;;;;;;26.18;21.86;98970.60;108050;1287;21992;-62
2023/03/09 13:41:31;;;;;;;2.70;1.50;;;;;;;26.07;21.85;98969.90;107980;1288;22035;-64
2023/03/09 13:43:58;;;;;;;6.40;1.30;;;;;;;26.05;22.28;98966.69;107945;1288;22002;-64
2023/03/09 13:46:28;;;;;;;5.90;1.40;;;;;;;26.04;22.17;98978.88;107983;1288;21990;-64
2023/03/09 13:48:56;;;;;;;;;;;;;;;25.93;22.07;98976.82;108008;1288;21980;-64
2023/03/09 13:51:27;;;;;;;4.10;1.40;;;;;;;25.96;22.12;98971.87;108052;1288;21994;-60
2023/03/09 13:53:56;;;;;;;3.50;1.00;;;;;;;25.93;21.84;98973.95;108104;1288;22159;-65
2023/03/09 13:56:22;;;;;;;3.60;1.10;;;;;;;25.90;22.08;98975.57;107981;1288;22003;-62
2023/03/09 13:58:49;;;;;;;2.00;1.10;;;;;;;25.91;22.22;98966.23;108002;1280;21996;-65
2023/03/09 14:01:23;;;;;;;4.90;1.30;;;;;;;25.86;22.06;98969.30;108073;1288;22259;-62
2023/03/09 14:03:51;;;;;;;3.00;1.00;;;;;;;25.94;22.17;98966.12;108029;1286;22155;-61
2023/03/09 14:06:30;;;;;;;2.70;1.40;;;;;;;25.93;22.05;98960.27;108067;1288;21955;-61
2023/03/09 14:09:00;;;;;;;4.30;1.10;;;;;;;25.88;22.13;98963.18;108054;1288;22100;-61
2023/03/09 14:11:27;;;;;;;;;;;;;;;25.82;22.38;98968.41;107983;1288;21977;-61
2023/03/09 14:14:16;;;;;;;3.00;1.30;;;;;;;25.68;22.46;98969.60;108118;1288;22018;-66
2023/03/09 14:16:44;;;;;;;2.10;0.80;;;;;;;25.60;22.56;98972.04;107972;1287;21990;-61
2023/03/09 14:19:29;;;;;;;4.20;1.20;;;;;;;25.39;22.32;98969.14;107941;1286;22066;-61
2023/03/09 14:21:56;;;;;;;2.90;1.20;;;;;;;25.37;22.79;98965.88;107887;1288;22026;-64
2023/03/09 14:24:32;;;;;;;3.80;1.10;;;;;;;25.27;22.71;98962.89;107923;1288;21999;-61
2023/03/09 14:27:12;;;;;;;;;;;;;;;25.19;22.92;98966.80;108093;1288;21983;-61
2023/03/09 14:29:37;;;;;;;2.50;1.40;;;;;;;25.05;22.98;98972.41;107973;1288;22002;-67
2023/03/09 14:32:24;;;;;;;4.00;1.20;;;;;;;24.87;23.08;98973.70;107967;1288;21996;-61
2023/03/09 14:34:53;;;;;;;2.80;1.10;;;;;;;24.83;23.40;98964.40;107867;1288;21996;-62
2023/03/09 14:37:23;;;;;;;3.20;1.40;;;;;;;24.83;23.52;98965.08;107958;1288;22010;-61
2023/03/09 14:39:49;;;;;;;3.90;1.20;;;;;;;24.79;23.66;98965.48;107974;1288;21996;-62
2023/03/09 14:42:25;;;;;;;1.80;1.10;;;;;;;24.80;23.66;98967.35;107940;1289;21989;-60
2023/03/09 14:45:21;;;;;;;2.70;1.40;;;;;;;24.89;23.82;98967.79;108080;1286;22011;-62
2023/03/09 14:47:52;;;;;;;2.50;1.10;;;;;;;25.02;23.70;98965.79;108036;1288;22032;-61
2023/03/09 14:50:19;;;;;;;3.40;1.10;;;;;;;25.22;23.69;98961.27;108026;1288;22161;-63
2023/03/09 14:52:45;;;;;;;2.20;1.00;;;;;;;25.29;23.54;98965.60;108013;1284;21994;-63
2023/03/09 14:55:14;;;;;;;3.20;1.20;;;;;;;25.35;23.43;98960.00;108038;1288;21992;-62
2023/03/09 14:57:40;;;;;;;3.60;1.10;;;;;;;25.34;23.60;98954.35;108064;1288;21991;-62
2023/03/09 15:00:06;;;;;;;2.30;1.00;;;;;;;25.29;23.62;98953.78;107994;1288;21999;-62
2023/03/09 15:02:33;;;;;;;5.30;1.20;;;;;;;25.25;23.80;98954.28;107942;1288;23038;-63
2023/03/09 15:04:59;;;;;;;3.30;1.50;;;;;;;25.17;23.90;98950.77;108004;1288;22025;-64
2023/03/09 15:07:24;;;;;;;3.30;1.30;;;;;;;25.07;24.05;98951.89;108051;1288;23529;-63
2023/03/09 15:09:50;;;;;;;4.90;1.60;;;;;;;24.88;24.28;98954.58;108078;1288;21989;-64
2023/03/09 15:12:19;;;;;;;2.60;1.40;;;;;;;24.73;24.54;98955.29;108036;1288;21989;-63
2023/03/09 15:14:47;;;;;;;3.50;1.90;;;;;;;24.59;24.66;98953.52;108108;1288;21993;-64
2023/03/09 15:17:18;;;;;;;3.40;1.70;;;;;;;24.54;24.76;98958.65;108551;1288;22005;-64
2023/03/09 15:19:44;;;;;;;5.00;1.80;;;;;;;24.45;24.88;98957.27;108081;1288;21999;-64
2023/03/09 15:22:15;;;;;;;4.10;1.70;;;;;;;24.34;25.04;98962.05;107306;1288;1002256;-62
2023/03/09 15:24:41;;;;;;;5.30;2.20;;;;;;;24.27;25.14;98964.37;108113;1288;21990;-63
2023/03/09 15:27:07;;;;;;;7.00;2.70;;;;;;;24.08;25.45;98964.05;106527;1288;1002312;-62
2023/03/09 15:29:33;;;;;;;4.00;2.00;;;;;;;24.01;25.56;98964.38;107995;1288;21986;-62
2023/03/09 15:32:04;;;;;;;5.60;2.90;;;;;;;23.90;25.64;98963.65;108002;1288;21995;-63
2023/03/09 15:34:37;;;;;;;4.00;1.90;;;;;;;23.78;25.89;98963.49;107976;1286;21997;-63
2023/03/09 15:37:03;;;;;;;4.80;1.90;;;;;;;23.69;26.21;98960.21;108036;1288;21994;-62
2023/03/09 15:39:29;;;;;;;3.40;1.60;;;;;;;23.48;26.95;98956.75;108049;1288;22001;-62
2023/03/09 15:41:55;;;;;;;17.90;10.50;;;;;;;23.26;27.15;98955.79;107974;1288;22004;-62
2023/03/09 15:44:21;;;;;;;20.60;16.20;;;;;;;23.05;27.39;98957.42;107973;1288;23289;-62
2023/03/09 15:46:47;;;;;;;14.40;9.90;;;;;;;22.86;27.45;98953.97;108006;1288;22017;-62
2023/03/09 15:49:13;;;;;;;17.00;14.20;;;;;;;22.71;27.51;98951.34;107976;1288;22024;-62
2023/03/09 15:51:39;;;;;;;7.90;5.20;;;;;;;22.52;27.96;98950.27;108029;1288;21994;-62
2023/03/09 15:54:05;;;;;;;7.10;3.40;;;;;;;22.36;27.96;98949.40;108064;1288;21990;-62
2023/03/09 15:56:31;;;;;;;193.90;89.00;;;;;;;22.26;28.20;98950.65;107989;1288;22003;-63
2023/03/09 15:58:58;;;;;;;19.20;11.20;;;;;;;22.17;28.54;98953.14;107994;1288;21976;-62
2023/03/09 16:01:25;;;;;;;339.00;226.40;;;;;;;22.11;28.48;98955.02;108022;1288;22017;-63
2023/03/09 16:03:51;;;;;;;220.50;153.40;;;;;;;22.02;28.65;98957.27;108030;1287;22000;-63
2023/03/09 16:06:18;;;;;;;79.10;58.20;;;;;;;21.86;29.05;98961.04;108020;1288;22050;-62
2023/03/09 16:08:44;;;;;;;82.30;65.50;;;;;;;21.76;29.09;98962.39;108033;1288;21989;-61
2023/03/09 16:11:15;;;;;;;;;;;;;;;21.63;29.21;98962.88;108012;1287;22043;-63
2023/03/09 16:13:46;;;;;;;13.00;9.10;;;;;;;21.53;29.30;98965.66;107980;1288;22047;-61
2023/03/09 16:16:12;;;;;;;86.70;59.10;;;;;;;21.40;29.52;98963.10;107975;1288;21984;-61
2023/03/09 16:18:45;;;;;;;52.30;39.20;;;;;;;21.23;30.04;98964.42;108004;1288;21992;-62
2023/03/09 16:21:11;;;;;;;125.90;93.40;;;;;;;21.11;30.27;98973.60;107993;1288;21988;-63
2023/03/09 16:23:42;;;;;;;148.10;115.80;;;;;;;21.00;30.19;98976.75;107977;1288;22271;-61
2023/03/09 16:26:13;;;;;;;82.20;64.30;;;;;;;20.89;30.53;98983.66;108010;1288;21993;-64
2023/03/09 16:28:40;;;;;;;34.40;25.40;;;;;;;20.76;30.98;98984.78;107861;1288;22060;-62
2023/03/09 16:31:16;;;;;;;19.00;12.20;;;;;;;20.64;31.29;98989.83;107929;1288;21990;-63
2023/03/09 16:33:44;;;;;;;77.10;51.90;;;;;;;20.48;31.67;98997.41;108011;1288;22002;-63
2023/03/09 16:36:10;;;;;;;63.40;46.40;;;;;;;20.34;32.02;99002.21;108048;1288;21990;-61
2023/03/09 16:38:36;;;;;;;37.50;24.40;;;;;;;20.24;31.99;99004.41;108023;1286;21992;-62
2023/03/09 16:41:06;;;;;;;38.60;28.70;;;;;;;20.16;32.35;99010.30;107993;1286;21979;-62
2023/03/09 16:43:36;;;;;;;26.30;23.10;;;;;;;20.06;32.57;99013.73;107989;1288;21979;-61
2023/03/09 16:46:02;;;;;;;14.00;12.50;;;;;;;19.93;33.03;99013.06;108080;1288;21989;-62
2023/03/09 16:48:28;;;;;;;13.60;6.20;;;;;;;19.84;32.93;99019.53;108044;1288;22033;-63
2023/03/09 16:50:58;;;;;;;7.90;6.10;;;;;;;19.80;33.00;99015.95;107949;1288;21988;-61
2023/03/09 16:53:25;;;;;;;13.70;6.10;;;;;;;19.75;33.32;99013.99;108087;1288;21994;-64
2023/03/09 16:56:02;;;;;;;12.40;5.70;;;;;;;19.72;33.32;99015.56;108126;1288;22000;-63
2023/03/09 16:58:30;;;;;;;9.70;4.40;;;;;;;19.58;33.62;99016.07;108085;1288;21992;-62
2023/03/09 17:00:55;;;;;;;8.00;3.80;;;;;;;19.50;33.99;99013.98;108022;1288;22046;-64
2023/03/09 17:03:21;;;;;;;15.60;4.60;;;;;;;19.57;33.97;99011.87;108101;1288;21990;-63
2023/03/09 17:05:51;;;;;;;7.60;3.70;;;;;;;19.59;33.74;99009.80;107974;1288;21996;-64
2023/03/09 17:08:21;;;;;;;7.30;4.00;;;;;;;19.50;34.16;99012.88;108037;1288;21995;-62
2023/03/09 17:10:49;;;;;;;12.90;3.80;;;;;;;19.49;34.03;99012.23;108020;1288;23120;-61
2023/03/09 17:13:16;;;;;;;7.90;3.90;;;;;;;19.40;33.94;99012.16;108146;1286;21992;-61
2023/03/09 17:15:42;;;;;;;13.70;8.80;;;;;;;19.31;33.69;99009.60;108013;1288;22002;-63
2023/03/09 17:18:15;;;;;;;26.20;19.70;;;;;;;19.17;33.77;99017.16;108039;1288;21989;-63
2023/03/09 17:20:47;;;;;;;56.70;47.80;;;;;;;19.15;34.13;99019.43;108088;1288;22004;-62
2023/03/09 17:23:13;;;;;;;44.40;35.70;;;;;;;19.10;34.54;99021.71;108045;1288;21987;-61
2023/03/09 17:25:39;;;;;;;33.30;27.90;;;;;;;19.01;34.63;99022.36;107979;1288;21999;-64
2023/03/09 17:28:09;;;;;;;36.30;32.60;;;;;;;18.94;34.87;99021.55;107652;1288;21986;-61
2023/03/09 17:30:35;;;;;;;14.90;10.70;;;;;;;18.91;34.69;99025.64;108045;1286;22588;-61
2023/03/09 17:33:03;;;;;;;14.90;9.10;;;;;;;18.86;35.11;99024.92;107995;1288;21997;-64
2023/03/09 17:35:29;;;;;;;21.30;10.30;;;;;;;18.81;35.45;99026.86;107983;1288;22047;-64
2023/03/09 17:37:56;;;;;;;10.20;5.80;;;;;;;18.78;35.41;99034.39;108055;1288;21996;-61
2023/03/09 17:40:23;;;;;;;10.50;4.50;;;;;;;18.74;35.90;99043.19;108049;1288;21996;-64
2023/03/09 17:42:48;;;;;;;9.40;5.30;;;;;;;18.71;36.39;99045.52;108053;1287;21985;-62
2023/03/09 17:45:16;;;;;;;14.50;6.80;;;;;;;18.78;36.53;99047.66;108004;1286;22000;-63
2023/03/09 17:47:42;;;;;;;11.00;5.70;;;;;;;18.64;37.47;99050.75;108014;1288;21993;-63
2023/03/09 17:50:09;;;;;;;9.30;4.80;;;;;;;18.56;37.58;99050.77;107990;1288;22001;-64
2023/03/09 17:52:35;;;;;;;12.20;5.10;;;;;;;18.52;37.69;99049.80;108042;1288;22047;-62
2023/03/09 17:55:01;;;;;;;10.60;4.20;;;;;;;18.50;37.53;99045.64;107997;1288;21990;-63
2023/03/09 17:57:27;;;;;;;10.90;4.30;;;;;;;18.45;37.97;99042.23;107940;1288;21984;-64
2023/03/09 17:59:53;;;;;;;22.40;12.60;;;;;;;18.44;37.95;99045.83;107954;1288;21995;-63
2023/03/09 18:02:19;;;;;;;11.80;6.10;;;;;;;18.41;38.71;99041.40;107952;1288;23666;-61
2023/03/09 18:04:45;;;;;;;12.00;6.10;;;;;;;18.43;38.75;99040.77;107966;1287;21992;-60
2023/03/09 18:07:11;;;;;;;10.90;5.00;;;;;;;18.42;38.86;99038.17;107990;1288;21988;-61
2023/03/09 18:09:50;;;;;;;14.30;6.10;;;;;;;18.41;39.03;99029.33;107990;1288;21987;-61
2023/03/09 18:12:16;;;;;;;9.70;5.50;;;;;;;18.45;38.51;99023.75;107959;1288;22022;-61
2023/03/09 18:14:42;;;;;;;9.90;4.60;;;;;;;18.43;38.40;99022.48;108037;1288;21992;-60
2023/03/09 18:17:07;;;;;;;12.40;5.30;;;;;;;18.33;39.08;99020.65;108000;1286;22069;-62
2023/03/09 18:19:33;;;;;;;12.30;5.90;;;;;;;18.28;39.04;99021.52;108123;1288;22101;-63